sensor_id;sensor_type;location;lat;lon;timestamp;pressure;altitude;pressure_sealevel;temperature;humidity
75740;BME280;64357;51.344;6.550;2023-04-08T00:00:54;101701.41;;;8.45;100.00
75740;BME280;64357;51.344;6.550;2023-04-08T00:03:22;101703.56;;;8.49;100.00
75740;BME280;64357;51.344;6.550;2023-04-08T00:05:50;101713.81;;;8.57;100.00
75740;BME280;64357;51.344;6.550;2023-04-08T00:08:16;101691.38;;;8.40;100.00
75740;BME280;64357;51.344;6.550;2023-04-08T00:10:41;101706.13;;;8.42;100.00
75740;BME280;64357;51.344;6.550;2023-04-08T00:13:06;101694.44;;;8.37;100.00
75740;BME280;64357;51.344;6.550;2023-04-08T00:15:32;101705.78;;;8.53;100.00
75740;BME280;64357;51.344;6.550;2023-04-08T00:17:57;101710.31;;;8.49;100.00
75740;BME280;64357;51.344;6.550;2023-04-08T00:20:29;101708.16;;;8.59;100.00
75740;BME280;64357;51.344;6.550;2023-04-08T00:22:55;101700.66;;;8.39;100.00
75740;BME280;64357;51.344;6.550;2023-04-08T00:25:23;101706.22;;;8.29;100.00
75740;BME280;64357;51.344;6.550;2023-04-08T00:27:48;101708.50;;;8.48;100.00
75740;BME280;64357;51.344;6.550;2023-04-08T00:30:16;101702.66;;;8.49;100.00
75740;BME280;64357;51.344;6.550;2023-04-08T00:32:41;101710.59;;;8.31;100.00
75740;BME280;64357;51.344;6.550;2023-04-08T00:35:07;101716.03;;;8.26;100.00
75740;BME280;64357;51.344;6.550;2023-04-08T00:37:38;101709.81;;;8.17;100.00
75740;BME280;64357;51.344;6.550;2023-04-08T00:40:04;101715.09;;;8.19;100.00
75740;BME280;64357;51.344;6.550;2023-04-08T00:42:29;101714.66;;;8.43;100.00
75740;BME280;64357;51.344;6.550;2023-04-08T00:44:55;101714.59;;;8.28;100.00
75740;BME280;64357;51.344;6.550;2023-04-08T00:47:21;101712.78;;;8.27;100.00
75740;BME280;64357;51.344;6.550;2023-04-08T00:49:46;101706.44;;;8.38;100.00
75740;BME280;64357;51.344;6.550;2023-04-08T00:52:14;101716.22;;;8.28;100.00
75740;BME280;64357;51.344;6.550;2023-04-08T00:54:42;101710.63;;;8.38;100.00
75740;BME280;64357;51.344;6.550;2023-04-08T00:57:07;101722.88;;;8.47;100.00
75740;BME280;64357;51.344;6.550;2023-04-08T00:59:38;101721.44;;;8.57;100.00
75740;BME280;64357;51.344;6.550;2023-04-08T01:05:35;101725.81;;;8.65;100.00
75740;BME280;64357;51.344;6.550;2023-04-08T01:08:06;101718.91;;;8.57;100.00
75740;BME280;64357;51.344;6.550;2023-04-08T01:10:33;101722.31;;;8.50;100.00
75740;BME280;64357;51.344;6.550;2023-04-08T01:13:08;101731.06;;;8.52;100.00
75740;BME280;64357;51.344;6.550;2023-04-08T01:15:35;101722.84;;;8.40;100.00
75740;BME280;64357;51.344;6.550;2023-04-08T01:18:12;101725.06;;;8.51;100.00
75740;BME280;64357;51.344;6.550;2023-04-08T01:20:41;101728.28;;;8.43;100.00
75740;BME280;64357;51.344;6.550;2023-04-08T01:23:14;101717.94;;;8.42;100.00
75740;BME280;64357;51.344;6.550;2023-04-08T01:25:49;101727.16;;;8.34;100.00
75740;BME280;64357;51.344;6.550;2023-04-08T01:28:19;101729.47;;;8.25;100.00
75740;BME280;64357;51.344;6.550;2023-04-08T01:30:46;101723.44;;;8.52;100.00
75740;BME280;64357;51.344;6.550;2023-04-08T01:33:14;101728.53;;;8.52;100.00
75740;BME280;64357;51.344;6.550;2023-04-08T01:35:41;101727.06;;;8.61;100.00
75740;BME280;64357;51.344;6.550;2023-04-08T01:38:13;101733.06;;;8.62;100.00
75740;BME280;64357;51.344;6.550;2023-04-08T01:40:40;101730.69;;;8.49;100.00
75740;BME280;64357;51.344;6.550;2023-04-08T01:43:09;101732.16;;;8.54;100.00
75740;BME280;64357;51.344;6.550;2023-04-08T01:45:42;101719.75;;;8.43;100.00
75740;BME280;64357;51.344;6.550;2023-04-08T01:48:08;101736.31;;;8.39;100.00
75740;BME280;64357;51.344;6.550;2023-04-08T01:50:34;101733.22;;;8.49;100.00
75740;BME280;64357;51.344;6.550;2023-04-08T01:53:01;101729.78;;;8.48;100.00
75740;BME280;64357;51.344;6.550;2023-04-08T01:55:28;101734.34;;;8.51;100.00
75740;BME280;64357;51.344;6.550;2023-04-08T01:57:58;101733.63;;;8.52;100.00
75740;BME280;64357;51.344;6.550;2023-04-08T02:00:30;101721.22;;;8.48;100.00
75740;BME280;64357;51.344;6.550;2023-04-08T02:02:56;101736.09;;;8.38;100.00
75740;BME280;64357;51.344;6.550;2023-04-08T02:05:22;101734.69;;;8.47;100.00
75740;BME280;64357;51.344;6.550;2023-04-08T02:07:48;101731.56;;;8.42;100.00
75740;BME280;64357;51.344;6.550;2023-04-08T02:10:16;101734.34;;;8.58;100.00
75740;BME280;64357;51.344;6.550;2023-04-08T02:12:45;101732.16;;;8.54;100.00
75740;BME280;64357;51.344;6.550;2023-04-08T02:15:11;101733.44;;;8.50;100.00
75740;BME280;64357;51.344;6.550;2023-04-08T02:20:49;101745.44;;;8.51;100.00
75740;BME280;64357;51.344;6.550;2023-04-08T02:23:22;101739.22;;;8.42;100.00
75740;BME280;64357;51.344;6.550;2023-04-08T02:25:48;101738.84;;;8.39;100.00
75740;BME280;64357;51.344;6.550;2023-04-08T02:28:17;101745.94;;;8.42;100.00
75740;BME280;64357;51.344;6.550;2023-04-08T02:30:47;101745.44;;;8.44;100.00
75740;BME280;64357;51.344;6.550;2023-04-08T02:33:17;101739.75;;;8.40;100.00
75740;BME280;64357;51.344;6.550;2023-04-08T02:35:45;101743.56;;;8.43;100.00
75740;BME280;64357;51.344;6.550;2023-04-08T02:38:11;101739.31;;;8.29;100.00
75740;BME280;64357;51.344;6.550;2023-04-08T02:40:37;101732.16;;;8.13;100.00
75740;BME280;64357;51.344;6.550;2023-04-08T02:43:04;101738.84;;;8.05;100.00
75740;BME280;64357;51.344;6.550;2023-04-08T02:45:34;101739.00;;;7.99;100.00
75740;BME280;64357;51.344;6.550;2023-04-08T02:48:02;101736.44;;;7.92;100.00
75740;BME280;64357;51.344;6.550;2023-04-08T02:50:27;101739.72;;;7.98;100.00
75740;BME280;64357;51.344;6.550;2023-04-08T02:52:54;101742.06;;;7.97;100.00
75740;BME280;64357;51.344;6.550;2023-04-08T02:55:20;101740.53;;;8.12;100.00
75740;BME280;64357;51.344;6.550;2023-04-08T02:57:50;101751.44;;;8.18;100.00
75740;BME280;64357;51.344;6.550;2023-04-08T03:00:18;101755.56;;;8.37;100.00
75740;BME280;64357;51.344;6.550;2023-04-08T03:02:46;101752.81;;;8.36;100.00
75740;BME280;64357;51.344;6.550;2023-04-08T03:05:11;101753.22;;;8.39;100.00
75740;BME280;64357;51.344;6.550;2023-04-08T03:07:42;101751.88;;;8.28;100.00
75740;BME280;64357;51.344;6.550;2023-04-08T03:10:08;101749.34;;;8.35;100.00
75740;BME280;64357;51.344;6.550;2023-04-08T03:12:36;101748.94;;;8.32;100.00
75740;BME280;64357;51.344;6.550;2023-04-08T03:15:02;101747.66;;;8.21;100.00
75740;BME280;64357;51.344;6.550;2023-04-08T03:17:28;101751.84;;;8.21;100.00
75740;BME280;64357;51.344;6.550;2023-04-08T03:19:54;101752.78;;;7.94;100.00
75740;BME280;64357;51.344;6.550;2023-04-08T03:22:19;101756.28;;;8.02;100.00
75740;BME280;64357;51.344;6.550;2023-04-08T03:24:50;101756.94;;;7.87;100.00
75740;BME280;64357;51.344;6.550;2023-04-08T03:27:16;101750.72;;;7.85;100.00
75740;BME280;64357;51.344;6.550;2023-04-08T03:29:41;101749.19;;;7.72;100.00
75740;BME280;64357;51.344;6.550;2023-04-08T03:32:10;101744.63;;;7.63;100.00
75740;BME280;64357;51.344;6.550;2023-04-08T03:34:38;101738.00;;;7.51;100.00
75740;BME280;64357;51.344;6.550;2023-04-08T03:37:05;101760.16;;;7.52;100.00
75740;BME280;64357;51.344;6.550;2023-04-08T03:39:33;101750.31;;;7.47;100.00
75740;BME280;64357;51.344;6.550;2023-04-08T03:41:58;101747.09;;;7.56;100.00
75740;BME280;64357;51.344;6.550;2023-04-08T03:44:27;101752.38;;;7.57;100.00
75740;BME280;64357;51.344;6.550;2023-04-08T03:46:53;101763.59;;;7.52;100.00
75740;BME280;64357;51.344;6.550;2023-04-08T03:49:18;101754.97;;;7.64;100.00
75740;BME280;64357;51.344;6.550;2023-04-08T03:51:44;101766.66;;;7.49;100.00
75740;BME280;64357;51.344;6.550;2023-04-08T03:54:09;101758.94;;;7.35;100.00
75740;BME280;64357;51.344;6.550;2023-04-08T03:56:37;101766.41;;;7.41;100.00
75740;BME280;64357;51.344;6.550;2023-04-08T03:59:02;101750.72;;;7.31;100.00
75740;BME280;64357;51.344;6.550;2023-04-08T04:01:27;101773.63;;;7.38;100.00
75740;BME280;64357;51.344;6.550;2023-04-08T04:03:58;101771.09;;;7.58;100.00
75740;BME280;64357;51.344;6.550;2023-04-08T04:06:26;101760.34;;;7.53;100.00
75740;BME280;64357;51.344;6.550;2023-04-08T04:08:55;101771.31;;;7.39;100.00
75740;BME280;64357;51.344;6.550;2023-04-08T04:11:22;101764.34;;;7.31;100.00
75740;BME280;64357;51.344;6.550;2023-04-08T04:13:48;101768.63;;;7.25;100.00
75740;BME280;64357;51.344;6.550;2023-04-08T04:16:13;101768.00;;;7.33;100.00
75740;BME280;64357;51.344;6.550;2023-04-08T04:18:38;101771.38;;;7.27;100.00
75740;BME280;64357;51.344;6.550;2023-04-08T04:21:05;101779.97;;;7.34;100.00
75740;BME280;64357;51.344;6.550;2023-04-08T04:23:31;101781.53;;;7.46;100.00
75740;BME280;64357;51.344;6.550;2023-04-08T04:25:56;101785.84;;;7.40;100.00
75740;BME280;64357;51.344;6.550;2023-04-08T04:28:22;101769.97;;;7.56;100.00
75740;BME280;64357;51.344;6.550;2023-04-08T04:30:47;101793.88;;;7.70;100.00
75740;BME280;64357;51.344;6.550;2023-04-08T04:33:15;101783.16;;;7.73;100.00
75740;BME280;64357;51.344;6.550;2023-04-08T04:35:43;101786.34;;;7.58;100.00
75740;BME280;64357;51.344;6.550;2023-04-08T04:38:08;101796.59;;;7.72;100.00
75740;BME280;64357;51.344;6.550;2023-04-08T04:40:37;101796.31;;;7.83;100.00
75740;BME280;64357;51.344;6.550;2023-04-08T04:43:03;101804.34;;;7.86;100.00
75740;BME280;64357;51.344;6.550;2023-04-08T04:45:28;101807.81;;;7.87;100.00
75740;BME280;64357;51.344;6.550;2023-04-08T04:47:54;101802.28;;;7.77;100.00
75740;BME280;64357;51.344;6.550;2023-04-08T04:50:19;101807.31;;;7.69;100.00
75740;BME280;64357;51.344;6.550;2023-04-08T04:52:48;101808.84;;;7.82;100.00
75740;BME280;64357;51.344;6.550;2023-04-08T04:55:13;101812.31;;;7.82;100.00
75740;BME280;64357;51.344;6.550;2023-04-08T04:57:40;101806.41;;;7.69;100.00
75740;BME280;64357;51.344;6.550;2023-04-08T05:00:06;101815.00;;;7.77;100.00
75740;BME280;64357;51.344;6.550;2023-04-08T05:02:32;101806.28;;;7.74;100.00
75740;BME280;64357;51.344;6.550;2023-04-08T05:05:03;101813.91;;;7.74;100.00
75740;BME280;64357;51.344;6.550;2023-04-08T05:07:34;101831.44;;;7.66;100.00
75740;BME280;64357;51.344;6.550;2023-04-08T05:10:00;101818.53;;;7.64;100.00
75740;BME280;64357;51.344;6.550;2023-04-08T05:12:28;101812.69;;;7.58;100.00
75740;BME280;64357;51.344;6.550;2023-04-08T05:14:57;101813.84;;;7.47;100.00
75740;BME280;64357;51.344;6.550;2023-04-08T05:17:22;101818.22;;;7.48;100.00
75740;BME280;64357;51.344;6.550;2023-04-08T05:19:48;101816.34;;;7.40;100.00
75740;BME280;64357;51.344;6.550;2023-04-08T05:22:16;101809.94;;;7.37;100.00
75740;BME280;64357;51.344;6.550;2023-04-08T05:24:41;101813.94;;;7.35;100.00
75740;BME280;64357;51.344;6.550;2023-04-08T05:27:06;101824.59;;;7.32;100.00
75740;BME280;64357;51.344;6.550;2023-04-08T05:29:32;101815.44;;;7.40;100.00
75740;BME280;64357;51.344;6.550;2023-04-08T05:31:57;101815.31;;;7.45;100.00
75740;BME280;64357;51.344;6.550;2023-04-08T05:34:23;101830.47;;;7.38;100.00
75740;BME280;64357;51.344;6.550;2023-04-08T05:36:51;101826.72;;;7.22;100.00
75740;BME280;64357;51.344;6.550;2023-04-08T05:39:17;101831.13;;;7.30;100.00
75740;BME280;64357;51.344;6.550;2023-04-08T05:41:43;101843.38;;;7.20;100.00
75740;BME280;64357;51.344;6.550;2023-04-08T05:44:12;101845.91;;;7.00;100.00
75740;BME280;64357;51.344;6.550;2023-04-08T05:46:40;101848.13;;;7.04;100.00
75740;BME280;64357;51.344;6.550;2023-04-08T05:49:07;101847.53;;;7.00;100.00
75740;BME280;64357;51.344;6.550;2023-04-08T05:51:35;101859.56;;;7.08;100.00
75740;BME280;64357;51.344;6.550;2023-04-08T05:54:01;101861.94;;;7.06;100.00
75740;BME280;64357;51.344;6.550;2023-04-08T05:56:26;101868.88;;;6.94;100.00
75740;BME280;64357;51.344;6.550;2023-04-08T05:58:51;101869.41;;;6.92;100.00
75740;BME280;64357;51.344;6.550;2023-04-08T06:01:19;101873.16;;;6.88;100.00
75740;BME280;64357;51.344;6.550;2023-04-08T06:03:47;101873.09;;;6.81;100.00
75740;BME280;64357;51.344;6.550;2023-04-08T06:06:19;101873.81;;;6.80;100.00
75740;BME280;64357;51.344;6.550;2023-04-08T06:08:45;101878.16;;;6.81;100.00
75740;BME280;64357;51.344;6.550;2023-04-08T06:11:11;101878.44;;;6.90;100.00
75740;BME280;64357;51.344;6.550;2023-04-08T06:13:36;101881.88;;;6.90;100.00
75740;BME280;64357;51.344;6.550;2023-04-08T06:16:10;101871.41;;;6.94;100.00
75740;BME280;64357;51.344;6.550;2023-04-08T06:18:38;101882.38;;;7.01;100.00
75740;BME280;64357;51.344;6.550;2023-04-08T06:21:06;101877.41;;;6.95;100.00
75740;BME280;64357;51.344;6.550;2023-04-08T06:23:34;101884.66;;;6.92;100.00
75740;BME280;64357;51.344;6.550;2023-04-08T06:26:02;101894.84;;;7.12;100.00
75740;BME280;64357;51.344;6.550;2023-04-08T06:28:30;101891.03;;;6.95;100.00
75740;BME280;64357;51.344;6.550;2023-04-08T06:31:00;101899.53;;;6.96;100.00
75740;BME280;64357;51.344;6.550;2023-04-08T06:33:26;101890.75;;;6.87;100.00
75740;BME280;64357;51.344;6.550;2023-04-08T06:35:51;101901.59;;;6.99;100.00
75740;BME280;64357;51.344;6.550;2023-04-08T06:38:19;101907.78;;;7.01;100.00
75740;BME280;64357;51.344;6.550;2023-04-08T06:40:44;101905.34;;;6.95;100.00
75740;BME280;64357;51.344;6.550;2023-04-08T06:43:10;101902.69;;;7.01;100.00
75740;BME280;64357;51.344;6.550;2023-04-08T06:45:35;101895.97;;;7.01;100.00
75740;BME280;64357;51.344;6.550;2023-04-08T06:48:03;101909.22;;;6.99;100.00
75740;BME280;64357;51.344;6.550;2023-04-08T06:50:31;101904.94;;;7.05;100.00
75740;BME280;64357;51.344;6.550;2023-04-08T06:52:59;101919.59;;;7.20;100.00
75740;BME280;64357;51.344;6.550;2023-04-08T06:55:25;101903.13;;;7.24;100.00
75740;BME280;64357;51.344;6.550;2023-04-08T06:57:53;101912.28;;;7.29;100.00
75740;BME280;64357;51.344;6.550;2023-04-08T07:00:18;101904.81;;;7.10;100.00
75740;BME280;64357;51.344;6.550;2023-04-08T07:02:46;101923.81;;;7.07;100.00
75740;BME280;64357;51.344;6.550;2023-04-08T07:05:12;101918.00;;;7.08;100.00
75740;BME280;64357;51.344;6.550;2023-04-08T07:07:37;101928.25;;;7.15;100.00
75740;BME280;64357;51.344;6.550;2023-04-08T07:10:03;101927.44;;;7.21;100.00
75740;BME280;64357;51.344;6.550;2023-04-08T07:12:28;101927.41;;;7.34;100.00
75740;BME280;64357;51.344;6.550;2023-04-08T07:14:54;101920.56;;;7.08;100.00
75740;BME280;64357;51.344;6.550;2023-04-08T07:17:19;101931.94;;;7.17;100.00
75740;BME280;64357;51.344;6.550;2023-04-08T07:19:47;101934.78;;;7.13;100.00
75740;BME280;64357;51.344;6.550;2023-04-08T07:22:16;101928.75;;;7.25;100.00
75740;BME280;64357;51.344;6.550;2023-04-08T07:24:43;101925.59;;;7.20;100.00
75740;BME280;64357;51.344;6.550;2023-04-08T07:27:14;101929.34;;;7.30;100.00
75740;BME280;64357;51.344;6.550;2023-04-08T07:29:40;101930.00;;;7.41;100.00
75740;BME280;64357;51.344;6.550;2023-04-08T07:32:08;101928.25;;;7.47;100.00
75740;BME280;64357;51.344;6.550;2023-04-08T07:34:36;101934.78;;;7.45;100.00
75740;BME280;64357;51.344;6.550;2023-04-08T07:37:01;101930.81;;;7.47;100.00
75740;BME280;64357;51.344;6.550;2023-04-08T07:39:27;101939.88;;;7.45;100.00
75740;BME280;64357;51.344;6.550;2023-04-08T07:41:52;101947.75;;;7.34;100.00
75740;BME280;64357;51.344;6.550;2023-04-08T07:44:18;101940.31;;;7.36;100.00
75740;BME280;64357;51.344;6.550;2023-04-08T07:46:44;101952.41;;;7.31;100.00
75740;BME280;64357;51.344;6.550;2023-04-08T07:49:16;101956.22;;;7.47;100.00
75740;BME280;64357;51.344;6.550;2023-04-08T07:51:41;101960.03;;;7.64;100.00
75740;BME280;64357;51.344;6.550;2023-04-08T07:54:06;101952.66;;;7.72;100.00
75740;BME280;64357;51.344;6.550;2023-04-08T07:56:32;101947.00;;;7.88;100.00
75740;BME280;64357;51.344;6.550;2023-04-08T07:58:57;101957.22;;;7.95;100.00
75740;BME280;64357;51.344;6.550;2023-04-08T08:01:25;101961.00;;;7.91;100.00
75740;BME280;64357;51.344;6.550;2023-04-08T08:03:52;101962.44;;;7.89;100.00
75740;BME280;64357;51.344;6.550;2023-04-08T08:06:20;101968.13;;;7.94;100.00
75740;BME280;64357;51.344;6.550;2023-04-08T08:08:46;101966.41;;;8.07;100.00
75740;BME280;64357;51.344;6.550;2023-04-08T08:11:11;101976.69;;;7.94;100.00
75740;BME280;64357;51.344;6.550;2023-04-08T08:13:36;101972.78;;;8.04;100.00
75740;BME280;64357;51.344;6.550;2023-04-08T08:16:02;101979.09;;;7.80;100.00
75740;BME280;64357;51.344;6.550;2023-04-08T08:18:30;101982.34;;;7.79;100.00
75740;BME280;64357;51.344;6.550;2023-04-08T08:20:55;101966.50;;;7.94;100.00
75740;BME280;64357;51.344;6.550;2023-04-08T08:23:23;101979.69;;;8.05;100.00
75740;BME280;64357;51.344;6.550;2023-04-08T08:25:53;101982.94;;;8.04;100.00
75740;BME280;64357;51.344;6.550;2023-04-08T08:28:22;101976.41;;;8.06;100.00
75740;BME280;64357;51.344;6.550;2023-04-08T08:30:48;101985.00;;;8.13;100.00
75740;BME280;64357;51.344;6.550;2023-04-08T08:33:16;101993.28;;;8.25;100.00
75740;BME280;64357;51.344;6.550;2023-04-08T08:35:44;101997.78;;;8.20;99.67
75740;BME280;64357;51.344;6.550;2023-04-08T08:38:14;101988.38;;;8.26;99.65
75740;BME280;64357;51.344;6.550;2023-04-08T08:40:44;101995.38;;;8.35;99.51
75740;BME280;64357;51.344;6.550;2023-04-08T08:43:12;101982.59;;;8.27;98.75
75740;BME280;64357;51.344;6.550;2023-04-08T08:45:41;102014.38;;;8.44;98.40
75740;BME280;64357;51.344;6.550;2023-04-08T08:48:18;102016.59;;;8.48;97.53
75740;BME280;64357;51.344;6.550;2023-04-08T08:50:50;102004.34;;;8.38;95.85
75740;BME280;64357;51.344;6.550;2023-04-08T08:53:16;102008.63;;;8.32;96.37
75740;BME280;64357;51.344;6.550;2023-04-08T08:55:42;102002.03;;;8.47;96.79
75740;BME280;64357;51.344;6.550;2023-04-08T08:58:10;101987.44;;;8.39;95.62
75740;BME280;64357;51.344;6.550;2023-04-08T09:00:37;102016.91;;;8.64;96.07
75740;BME280;64357;51.344;6.550;2023-04-08T09:03:22;102011.53;;;8.75;94.77
75740;BME280;64357;51.344;6.550;2023-04-08T09:10:53;102010.31;;;8.59;94.49
75740;BME280;64357;51.344;6.550;2023-04-08T09:13:21;102000.81;;;8.50;93.95
75740;BME280;64357;51.344;6.550;2023-04-08T09:16:16;102017.38;;;8.54;93.73
75740;BME280;64357;51.344;6.550;2023-04-08T09:18:44;102006.47;;;8.55;93.74
75740;BME280;64357;51.344;6.550;2023-04-08T09:21:13;102014.09;;;8.55;93.86
75740;BME280;64357;51.344;6.550;2023-04-08T09:23:51;102009.09;;;8.42;94.48
75740;BME280;64357;51.344;6.550;2023-04-08T09:26:21;102011.41;;;8.61;94.12
75740;BME280;64357;51.344;6.550;2023-04-08T09:29:16;102018.72;;;8.92;93.51
75740;BME280;64357;51.344;6.550;2023-04-08T09:31:42;101998.00;;;8.42;92.95
75740;BME280;64357;51.344;6.550;2023-04-08T09:34:15;102014.78;;;8.47;94.11
75740;BME280;64357;51.344;6.550;2023-04-08T09:36:54;102021.13;;;8.70;94.46
75740;BME280;64357;51.344;6.550;2023-04-08T09:39:31;102016.97;;;8.78;92.35
75740;BME280;64357;51.344;6.550;2023-04-08T09:41:59;102016.91;;;8.64;92.40
75740;BME280;64357;51.344;6.550;2023-04-08T09:44:28;102032.50;;;8.79;92.60
75740;BME280;64357;51.344;6.550;2023-04-08T10:00:01;102045.19;;;9.41;86.97
75740;BME280;64357;51.344;6.550;2023-04-08T10:02:33;102040.50;;;9.51;86.67
75740;BME280;64357;51.344;6.550;2023-04-08T10:05:05;102028.47;;;9.50;82.67
75740;BME280;64357;51.344;6.550;2023-04-08T10:07:33;102040.94;;;9.82;81.38
75740;BME280;64357;51.344;6.550;2023-04-08T10:10:02;102025.31;;;10.15;80.90
75740;BME280;64357;51.344;6.550;2023-04-08T10:12:28;102041.06;;;10.32;81.39
75740;BME280;64357;51.344;6.550;2023-04-08T10:15:24;102042.31;;;10.64;78.49
75740;BME280;64357;51.344;6.550;2023-04-08T10:17:55;102039.66;;;11.07;77.68
75740;BME280;64357;51.344;6.550;2023-04-08T10:23:05;102040.03;;;11.62;73.57
75740;BME280;64357;51.344;6.550;2023-04-08T10:25:41;102027.34;;;12.69;67.71
75740;BME280;64357;51.344;6.550;2023-04-08T10:30:54;102032.41;;;12.76;66.57
75740;BME280;64357;51.344;6.550;2023-04-08T10:36:10;102039.56;;;14.56;61.75
75740;BME280;64357;51.344;6.550;2023-04-08T10:38:37;102026.38;;;15.12;59.76
75740;BME280;64357;51.344;6.550;2023-04-08T10:41:05;102035.03;;;15.21;59.50
75740;BME280;64357;51.344;6.550;2023-04-08T10:43:34;102017.56;;;14.92;58.47
75740;BME280;64357;51.344;6.550;2023-04-08T10:45:59;102011.66;;;13.85;61.34
75740;BME280;64357;51.344;6.550;2023-04-08T10:48:25;102010.22;;;12.61;64.06
75740;BME280;64357;51.344;6.550;2023-04-08T10:51:00;102019.09;;;12.33;66.98
75740;BME280;64357;51.344;6.550;2023-04-08T10:53:31;102020.75;;;12.33;67.86
75740;BME280;64357;51.344;6.550;2023-04-08T10:56:08;102016.03;;;12.67;65.83
75740;BME280;64357;51.344;6.550;2023-04-08T10:58:50;102013.91;;;13.42;62.90
75740;BME280;64357;51.344;6.550;2023-04-08T11:01:15;102015.63;;;14.24;57.31
75740;BME280;64357;51.344;6.550;2023-04-08T11:03:42;102022.19;;;14.62;60.20
75740;BME280;64357;51.344;6.550;2023-04-08T11:06:10;102009.53;;;14.39;59.45
75740;BME280;64357;51.344;6.550;2023-04-08T11:08:36;102020.25;;;14.77;57.55
75740;BME280;64357;51.344;6.550;2023-04-08T11:11:07;102008.78;;;14.82;58.21
75740;BME280;64357;51.344;6.550;2023-04-08T11:13:38;102011.56;;;15.79;53.07
75740;BME280;64357;51.344;6.550;2023-04-08T11:16:05;102012.16;;;16.38;51.84
75740;BME280;64357;51.344;6.550;2023-04-08T11:18:34;102007.78;;;15.32;52.57
75740;BME280;64357;51.344;6.550;2023-04-08T11:21:02;102003.53;;;15.24;53.03
75740;BME280;64357;51.344;6.550;2023-04-08T11:23:30;102006.34;;;14.41;56.19
75740;BME280;64357;51.344;6.550;2023-04-08T11:25:58;102006.28;;;13.51;59.62
75740;BME280;64357;51.344;6.550;2023-04-08T11:28:25;102000.34;;;13.27;60.04
75740;BME280;64357;51.344;6.550;2023-04-08T11:30:53;102005.28;;;12.94;61.63
75740;BME280;64357;51.344;6.550;2023-04-08T11:33:25;102003.28;;;12.76;61.60
75740;BME280;64357;51.344;6.550;2023-04-08T11:35:53;101998.81;;;12.66;62.42
75740;BME280;64357;51.344;6.550;2023-04-08T11:38:23;101996.63;;;12.23;63.24
75740;BME280;64357;51.344;6.550;2023-04-08T11:40:58;102006.81;;;12.31;62.79
75740;BME280;64357;51.344;6.550;2023-04-08T11:43:27;102009.19;;;11.83;63.24
75740;BME280;64357;51.344;6.550;2023-04-08T11:45:52;102014.78;;;11.95;64.43
75740;BME280;64357;51.344;6.550;2023-04-08T11:48:18;102001.22;;;11.66;64.91
75740;BME280;64357;51.344;6.550;2023-04-08T11:50:47;102014.72;;;11.72;64.69
75740;BME280;64357;51.344;6.550;2023-04-08T11:53:21;102021.75;;;11.59;65.56
75740;BME280;64357;51.344;6.550;2023-04-08T11:55:47;102016.63;;;11.59;64.21
75740;BME280;64357;51.344;6.550;2023-04-08T11:58:17;102023.34;;;11.65;65.50
75740;BME280;64357;51.344;6.550;2023-04-08T12:00:45;102024.75;;;11.40;64.74
75740;BME280;64357;51.344;6.550;2023-04-08T12:03:11;102022.56;;;11.43;65.59
75740;BME280;64357;51.344;6.550;2023-04-08T12:05:37;102022.44;;;11.28;64.34
75740;BME280;64357;51.344;6.550;2023-04-08T12:08:03;102014.97;;;11.22;64.87
75740;BME280;64357;51.344;6.550;2023-04-08T12:10:28;102017.56;;;11.08;66.07
75740;BME280;64357;51.344;6.550;2023-04-08T12:13:00;102030.78;;;10.97;66.20
75740;BME280;64357;51.344;6.550;2023-04-08T12:15:30;102021.25;;;11.03;66.98
75740;BME280;64357;51.344;6.550;2023-04-08T12:17:56;102024.09;;;11.27;67.32
75740;BME280;64357;51.344;6.550;2023-04-08T12:20:27;102035.78;;;11.25;67.07
75740;BME280;64357;51.344;6.550;2023-04-08T12:22:53;102022.06;;;11.25;66.72
75740;BME280;64357;51.344;6.550;2023-04-08T12:25:20;102023.97;;;11.56;66.75
75740;BME280;64357;51.344;6.550;2023-04-08T12:27:46;102029.66;;;11.46;65.35
75740;BME280;64357;51.344;6.550;2023-04-08T12:30:12;102025.16;;;11.29;65.35
75740;BME280;64357;51.344;6.550;2023-04-08T12:32:37;102032.00;;;11.14;64.78
75740;BME280;64357;51.344;6.550;2023-04-08T12:35:03;102031.22;;;11.23;65.18
75740;BME280;64357;51.344;6.550;2023-04-08T12:37:29;102017.22;;;11.05;65.81
75740;BME280;64357;51.344;6.550;2023-04-08T12:39:54;102031.81;;;11.06;65.22
75740;BME280;64357;51.344;6.550;2023-04-08T12:42:23;102033.22;;;11.25;65.47
75740;BME280;64357;51.344;6.550;2023-04-08T12:44:49;102029.00;;;11.33;65.39
75740;BME280;64357;51.344;6.550;2023-04-08T12:47:15;102030.00;;;11.49;64.60
75740;BME280;64357;51.344;6.550;2023-04-08T12:49:40;102032.31;;;11.25;65.19
75740;BME280;64357;51.344;6.550;2023-04-08T12:52:05;102036.41;;;11.08;64.66
75740;BME280;64357;51.344;6.550;2023-04-08T12:54:33;102023.59;;;11.15;64.87
75740;BME280;64357;51.344;6.550;2023-04-08T12:56:58;102033.41;;;11.27;65.18
75740;BME280;64357;51.344;6.550;2023-04-08T12:59:25;102031.25;;;11.15;65.40
75740;BME280;64357;51.344;6.550;2023-04-08T13:01:50;102023.19;;;11.27;66.69
75740;BME280;64357;51.344;6.550;2023-04-08T13:04:16;102025.50;;;11.39;65.50
75740;BME280;64357;51.344;6.550;2023-04-08T13:06:42;102027.69;;;11.36;65.54
75740;BME280;64357;51.344;6.550;2023-04-08T13:09:07;102033.78;;;11.23;64.05
75740;BME280;64357;51.344;6.550;2023-04-08T13:11:32;102039.06;;;11.24;63.94
75740;BME280;64357;51.344;6.550;2023-04-08T13:13:58;102030.19;;;10.99;65.55
75740;BME280;64357;51.344;6.550;2023-04-08T13:16:24;102018.13;;;11.05;65.49
75740;BME280;64357;51.344;6.550;2023-04-08T13:18:49;102020.72;;;10.98;65.34
75740;BME280;64357;51.344;6.550;2023-04-08T13:21:16;102018.63;;;11.17;64.44
75740;BME280;64357;51.344;6.550;2023-04-08T13:23:41;102011.09;;;11.26;63.75
75740;BME280;64357;51.344;6.550;2023-04-08T13:26:08;102029.19;;;11.27;63.75